Terminal Aerodrome Forecast
Issued by NWS

Home | Current Version | Previous Version | Text Only | Print | Product List | Glossary On
Versions: 1 2 3 4 5 6 7 8 9 10 11 12 13 14 15 16 17 18 19 20 21 22 23
000
FTUS42 KTAE 031600 AAB
TAFECP
TAF AMD
KECP 031618Z 0316/0412 16006KT P6SM SCT006
     FM031700 17009KT P6SM SCT008 BKN050
     FM040000 17004KT P6SM BKN250
     FM040600 00000KT 1/4SM FG OVC001=

USA.gov is the U.S. government's official web portal to all federal, state and local government web resources and services.